sensor_id;sensor_type;location;lat;lon;timestamp;P1;durP1;ratioP1;P2;durP2;ratioP2
795;SDS011;381;48.770;9.188;2022-11-18T00:00:25;12.67;;;12.10;;
795;SDS011;381;48.770;9.188;2022-11-18T00:05:29;13.03;;;12.40;;
795;SDS011;381;48.770;9.188;2022-11-18T00:10:31;12.10;;;11.70;;
795;SDS011;381;48.770;9.188;2022-11-18T00:15:33;12.90;;;12.30;;
795;SDS011;381;48.770;9.188;2022-11-18T00:20:40;11.30;;;10.80;;
795;SDS011;381;48.770;9.188;2022-11-18T00:25:42;14.20;;;13.50;;
795;SDS011;381;48.770;9.188;2022-11-18T00:30:44;14.87;;;14.07;;
795;SDS011;381;48.770;9.188;2022-11-18T00:35:52;17.20;;;16.10;;
795;SDS011;381;48.770;9.188;2022-11-18T00:40:58;12.50;;;12.00;;
795;SDS011;381;48.770;9.188;2022-11-18T00:46:00;12.83;;;12.10;;
795;SDS011;381;48.770;9.188;2022-11-18T00:51:17;13.07;;;12.47;;
795;SDS011;381;48.770;9.188;2022-11-18T00:56:19;13.77;;;13.17;;
795;SDS011;381;48.770;9.188;2022-11-18T01:01:21;11.97;;;11.47;;
795;SDS011;381;48.770;9.188;2022-11-18T01:06:25;11.40;;;10.90;;
795;SDS011;381;48.770;9.188;2022-11-18T01:11:27;11.10;;;10.60;;
795;SDS011;381;48.770;9.188;2022-11-18T01:16:46;11.50;;;11.00;;
795;SDS011;381;48.770;9.188;2022-11-18T01:21:51;10.97;;;10.50;;
795;SDS011;381;48.770;9.188;2022-11-18T01:26:58;11.10;;;10.60;;
795;SDS011;381;48.770;9.188;2022-11-18T01:32:01;11.77;;;11.17;;
795;SDS011;381;48.770;9.188;2022-11-18T01:37:04;13.37;;;12.77;;
795;SDS011;381;48.770;9.188;2022-11-18T01:42:09;12.80;;;12.00;;
795;SDS011;381;48.770;9.188;2022-11-18T01:47:15;12.03;;;11.53;;
795;SDS011;381;48.770;9.188;2022-11-18T01:52:18;13.90;;;13.10;;
795;SDS011;381;48.770;9.188;2022-11-18T01:57:21;15.30;;;14.20;;
795;SDS011;381;48.770;9.188;2022-11-18T02:02:27;12.40;;;11.80;;
795;SDS011;381;48.770;9.188;2022-11-18T02:07:34;12.27;;;11.77;;
795;SDS011;381;48.770;9.188;2022-11-18T02:12:39;11.80;;;11.20;;
795;SDS011;381;48.770;9.188;2022-11-18T02:17:44;12.17;;;11.57;;
795;SDS011;381;48.770;9.188;2022-11-18T02:23:03;12.00;;;11.60;;
795;SDS011;381;48.770;9.188;2022-11-18T02:28:35;13.27;;;12.47;;
795;SDS011;381;48.770;9.188;2022-11-18T02:33:43;13.57;;;12.67;;
795;SDS011;381;48.770;9.188;2022-11-18T02:38:51;13.40;;;12.70;;
795;SDS011;381;48.770;9.188;2022-11-18T02:43:57;13.13;;;12.47;;
795;SDS011;381;48.770;9.188;2022-11-18T02:49:06;13.57;;;12.97;;
795;SDS011;381;48.770;9.188;2022-11-18T02:54:12;13.90;;;13.30;;
795;SDS011;381;48.770;9.188;2022-11-18T02:59:17;14.00;;;13.20;;
795;SDS011;381;48.770;9.188;2022-11-18T03:04:21;13.60;;;13.00;;
795;SDS011;381;48.770;9.188;2022-11-18T03:09:26;15.00;;;14.10;;
795;SDS011;381;48.770;9.188;2022-11-18T03:14:34;14.70;;;13.90;;
795;SDS011;381;48.770;9.188;2022-11-18T03:19:49;14.30;;;13.70;;
795;SDS011;381;48.770;9.188;2022-11-18T03:25:05;13.70;;;13.10;;
795;SDS011;381;48.770;9.188;2022-11-18T03:30:12;14.20;;;13.60;;
795;SDS011;381;48.770;9.188;2022-11-18T03:35:20;13.60;;;13.00;;
795;SDS011;381;48.770;9.188;2022-11-18T03:40:26;14.20;;;13.50;;
795;SDS011;381;48.770;9.188;2022-11-18T03:45:33;14.20;;;13.60;;
795;SDS011;381;48.770;9.188;2022-11-18T03:50:41;14.37;;;13.67;;
795;SDS011;381;48.770;9.188;2022-11-18T03:55:47;14.30;;;13.60;;
795;SDS011;381;48.770;9.188;2022-11-18T04:00:54;14.70;;;13.90;;
795;SDS011;381;48.770;9.188;2022-11-18T04:06:02;16.30;;;15.30;;
795;SDS011;381;48.770;9.188;2022-11-18T04:11:10;15.40;;;14.70;;
795;SDS011;381;48.770;9.188;2022-11-18T04:16:37;14.60;;;13.80;;
795;SDS011;381;48.770;9.188;2022-11-18T04:21:41;15.40;;;14.70;;
795;SDS011;381;48.770;9.188;2022-11-18T04:26:43;15.00;;;14.30;;
795;SDS011;381;48.770;9.188;2022-11-18T04:31:45;15.40;;;14.70;;
795;SDS011;381;48.770;9.188;2022-11-18T04:36:49;19.00;;;17.90;;
795;SDS011;381;48.770;9.188;2022-11-18T04:41:51;13.90;;;13.17;;
795;SDS011;381;48.770;9.188;2022-11-18T04:46:56;12.17;;;11.67;;
795;SDS011;381;48.770;9.188;2022-11-18T04:52:01;14.57;;;13.97;;
795;SDS011;381;48.770;9.188;2022-11-18T04:57:03;16.00;;;15.30;;
795;SDS011;381;48.770;9.188;2022-11-18T05:02:05;15.10;;;14.30;;
795;SDS011;381;48.770;9.188;2022-11-18T05:07:11;14.87;;;14.17;;
795;SDS011;381;48.770;9.188;2022-11-18T05:12:15;14.67;;;13.97;;
795;SDS011;381;48.770;9.188;2022-11-18T05:17:34;15.77;;;15.07;;
795;SDS011;381;48.770;9.188;2022-11-18T05:22:37;14.90;;;14.30;;
795;SDS011;381;48.770;9.188;2022-11-18T05:27:40;12.80;;;12.30;;
795;SDS011;381;48.770;9.188;2022-11-18T05:32:42;12.40;;;11.90;;
795;SDS011;381;48.770;9.188;2022-11-18T05:37:45;14.00;;;13.40;;
795;SDS011;381;48.770;9.188;2022-11-18T05:42:47;15.10;;;14.50;;
795;SDS011;381;48.770;9.188;2022-11-18T05:48:10;13.53;;;13.03;;
795;SDS011;381;48.770;9.188;2022-11-18T05:53:14;14.20;;;13.60;;
795;SDS011;381;48.770;9.188;2022-11-18T05:58:16;13.23;;;12.73;;
795;SDS011;381;48.770;9.188;2022-11-18T06:03:20;14.77;;;14.17;;
795;SDS011;381;48.770;9.188;2022-11-18T06:08:28;9.57;;;9.27;;
795;SDS011;381;48.770;9.188;2022-11-18T06:13:36;15.17;;;14.57;;
795;SDS011;381;48.770;9.188;2022-11-18T06:18:47;14.20;;;13.60;;
795;SDS011;381;48.770;9.188;2022-11-18T06:23:51;14.60;;;14.00;;
795;SDS011;381;48.770;9.188;2022-11-18T06:28:53;10.80;;;10.40;;
795;SDS011;381;48.770;9.188;2022-11-18T06:33:57;14.60;;;13.97;;
795;SDS011;381;48.770;9.188;2022-11-18T06:39:02;14.37;;;13.67;;
795;SDS011;381;48.770;9.188;2022-11-18T06:44:05;15.30;;;14.60;;
795;SDS011;381;48.770;9.188;2022-11-18T06:49:07;12.10;;;11.50;;
795;SDS011;381;48.770;9.188;2022-11-18T06:54:10;15.50;;;14.80;;
795;SDS011;381;48.770;9.188;2022-11-18T06:59:12;10.20;;;9.80;;
795;SDS011;381;48.770;9.188;2022-11-18T07:04:20;15.53;;;14.80;;
795;SDS011;381;48.770;9.188;2022-11-18T07:09:24;15.07;;;14.37;;
795;SDS011;381;48.770;9.188;2022-11-18T07:14:26;11.47;;;10.50;;
795;SDS011;381;48.770;9.188;2022-11-18T07:19:28;14.13;;;13.53;;
795;SDS011;381;48.770;9.188;2022-11-18T07:24:31;15.90;;;15.20;;
795;SDS011;381;48.770;9.188;2022-11-18T07:29:33;18.93;;;17.63;;
795;SDS011;381;48.770;9.188;2022-11-18T07:34:35;16.67;;;15.90;;
795;SDS011;381;48.770;9.188;2022-11-18T07:39:39;15.40;;;14.70;;
795;SDS011;381;48.770;9.188;2022-11-18T07:44:41;14.80;;;14.10;;
795;SDS011;381;48.770;9.188;2022-11-18T07:49:43;13.23;;;12.40;;
795;SDS011;381;48.770;9.188;2022-11-18T07:54:48;14.20;;;13.60;;
795;SDS011;381;48.770;9.188;2022-11-18T07:59:50;8.50;;;8.20;;
795;SDS011;381;48.770;9.188;2022-11-18T08:04:52;14.80;;;14.10;;
795;SDS011;381;48.770;9.188;2022-11-18T08:09:56;13.97;;;13.27;;
795;SDS011;381;48.770;9.188;2022-11-18T08:14:58;14.40;;;13.70;;
795;SDS011;381;48.770;9.188;2022-11-18T08:20:00;14.70;;;14.03;;
795;SDS011;381;48.770;9.188;2022-11-18T08:25:04;12.43;;;11.93;;
795;SDS011;381;48.770;9.188;2022-11-18T08:30:07;12.50;;;12.00;;
795;SDS011;381;48.770;9.188;2022-11-18T08:35:10;14.27;;;13.67;;
795;SDS011;381;48.770;9.188;2022-11-18T08:40:14;13.13;;;12.63;;
795;SDS011;381;48.770;9.188;2022-11-18T08:45:16;13.13;;;12.53;;
795;SDS011;381;48.770;9.188;2022-11-18T08:50:18;14.83;;;14.13;;
795;SDS011;381;48.770;9.188;2022-11-18T08:55:22;14.07;;;13.47;;
795;SDS011;381;48.770;9.188;2022-11-18T09:00:24;14.83;;;14.20;;
795;SDS011;381;48.770;9.188;2022-11-18T09:05:27;13.13;;;12.53;;
795;SDS011;381;48.770;9.188;2022-11-18T09:10:30;13.90;;;13.30;;
795;SDS011;381;48.770;9.188;2022-11-18T09:15:34;14.30;;;13.50;;
795;SDS011;381;48.770;9.188;2022-11-18T09:20:36;14.23;;;13.60;;
795;SDS011;381;48.770;9.188;2022-11-18T09:25:39;19.83;;;18.53;;
795;SDS011;381;48.770;9.188;2022-11-18T09:30:42;14.70;;;14.00;;
795;SDS011;381;48.770;9.188;2022-11-18T09:35:44;15.10;;;14.40;;
795;SDS011;381;48.770;9.188;2022-11-18T09:40:49;14.30;;;13.60;;
795;SDS011;381;48.770;9.188;2022-11-18T09:46:02;13.90;;;13.30;;
795;SDS011;381;48.770;9.188;2022-11-18T09:51:15;13.50;;;12.97;;
795;SDS011;381;48.770;9.188;2022-11-18T09:56:19;13.33;;;12.73;;
795;SDS011;381;48.770;9.188;2022-11-18T10:01:22;15.47;;;14.67;;
795;SDS011;381;48.770;9.188;2022-11-18T10:06:31;14.57;;;13.87;;
795;SDS011;381;48.770;9.188;2022-11-18T10:11:39;14.00;;;13.40;;
795;SDS011;381;48.770;9.188;2022-11-18T10:16:48;15.47;;;14.70;;
795;SDS011;381;48.770;9.188;2022-11-18T10:22:03;15.80;;;15.00;;
795;SDS011;381;48.770;9.188;2022-11-18T10:27:18;15.17;;;14.30;;
795;SDS011;381;48.770;9.188;2022-11-18T10:32:21;13.43;;;12.83;;
795;SDS011;381;48.770;9.188;2022-11-18T10:37:25;14.20;;;13.50;;
795;SDS011;381;48.770;9.188;2022-11-18T10:42:33;14.10;;;13.40;;
795;SDS011;381;48.770;9.188;2022-11-18T10:47:40;15.07;;;14.30;;
795;SDS011;381;48.770;9.188;2022-11-18T10:52:50;10.67;;;10.17;;
795;SDS011;381;48.770;9.188;2022-11-18T10:57:55;16.77;;;15.77;;
795;SDS011;381;48.770;9.188;2022-11-18T11:03:13;14.60;;;14.00;;
795;SDS011;381;48.770;9.188;2022-11-18T11:08:23;16.50;;;15.73;;
795;SDS011;381;48.770;9.188;2022-11-18T11:13:26;15.73;;;14.90;;
795;SDS011;381;48.770;9.188;2022-11-18T11:18:33;13.63;;;12.83;;
795;SDS011;381;48.770;9.188;2022-11-18T11:23:42;17.27;;;16.17;;
795;SDS011;381;48.770;9.188;2022-11-18T11:28:48;17.47;;;16.27;;
795;SDS011;381;48.770;9.188;2022-11-18T11:33:59;16.67;;;15.80;;
795;SDS011;381;48.770;9.188;2022-11-18T11:39:19;11.23;;;10.53;;
795;SDS011;381;48.770;9.188;2022-11-18T11:44:42;16.60;;;15.80;;
795;SDS011;381;48.770;9.188;2022-11-18T11:49:55;15.50;;;14.70;;
795;SDS011;381;48.770;9.188;2022-11-18T11:55:04;13.87;;;13.27;;
795;SDS011;381;48.770;9.188;2022-11-18T12:00:17;14.80;;;13.80;;
795;SDS011;381;48.770;9.188;2022-11-18T12:05:21;15.30;;;14.60;;
795;SDS011;381;48.770;9.188;2022-11-18T12:10:34;9.03;;;8.53;;
795;SDS011;381;48.770;9.188;2022-11-18T12:15:45;15.43;;;14.70;;
795;SDS011;381;48.770;9.188;2022-11-18T12:20:53;15.53;;;14.80;;
795;SDS011;381;48.770;9.188;2022-11-18T12:26:03;16.57;;;15.20;;
795;SDS011;381;48.770;9.188;2022-11-18T12:36:34;13.93;;;13.23;;
795;SDS011;381;48.770;9.188;2022-11-18T12:41:53;13.30;;;12.70;;
795;SDS011;381;48.770;9.188;2022-11-18T12:47:15;14.17;;;13.37;;
795;SDS011;381;48.770;9.188;2022-11-18T12:52:52;15.20;;;14.40;;
795;SDS011;381;48.770;9.188;2022-11-18T12:57:55;14.70;;;13.63;;
795;SDS011;381;48.770;9.188;2022-11-18T13:02:57;24.57;;;22.60;;
795;SDS011;381;48.770;9.188;2022-11-18T13:08:03;22.00;;;20.40;;
795;SDS011;381;48.770;9.188;2022-11-18T13:13:24;15.60;;;14.70;;
795;SDS011;381;48.770;9.188;2022-11-18T13:18:29;13.67;;;12.87;;
795;SDS011;381;48.770;9.188;2022-11-18T13:23:32;16.33;;;15.53;;
795;SDS011;381;48.770;9.188;2022-11-18T13:28:58;16.40;;;15.37;;
795;SDS011;381;48.770;9.188;2022-11-18T13:34:18;15.97;;;14.90;;
795;SDS011;381;48.770;9.188;2022-11-18T13:39:23;16.60;;;15.50;;
795;SDS011;381;48.770;9.188;2022-11-18T13:44:27;16.20;;;14.93;;
795;SDS011;381;48.770;9.188;2022-11-18T13:49:34;12.40;;;11.70;;
795;SDS011;381;48.770;9.188;2022-11-18T13:54:44;14.60;;;13.90;;
795;SDS011;381;48.770;9.188;2022-11-18T13:59:47;11.97;;;11.07;;
795;SDS011;381;48.770;9.188;2022-11-18T14:04:51;14.27;;;13.47;;
795;SDS011;381;48.770;9.188;2022-11-18T14:09:58;10.20;;;9.60;;
795;SDS011;381;48.770;9.188;2022-11-18T14:20:22;15.73;;;14.70;;
795;SDS011;381;48.770;9.188;2022-11-18T14:25:28;17.03;;;16.10;;
795;SDS011;381;48.770;9.188;2022-11-18T14:30:33;13.40;;;12.80;;
795;SDS011;381;48.770;9.188;2022-11-18T14:35:36;16.60;;;15.80;;
795;SDS011;381;48.770;9.188;2022-11-18T14:40:40;15.60;;;14.63;;
795;SDS011;381;48.770;9.188;2022-11-18T14:45:42;15.00;;;14.30;;
795;SDS011;381;48.770;9.188;2022-11-18T14:50:44;15.67;;;14.83;;
795;SDS011;381;48.770;9.188;2022-11-18T14:55:49;15.60;;;14.70;;
795;SDS011;381;48.770;9.188;2022-11-18T15:00:53;16.00;;;14.70;;
795;SDS011;381;48.770;9.188;2022-11-18T15:05:55;13.43;;;12.63;;
795;SDS011;381;48.770;9.188;2022-11-18T15:10:58;14.43;;;13.63;;
795;SDS011;381;48.770;9.188;2022-11-18T15:16:00;14.23;;;13.43;;
795;SDS011;381;48.770;9.188;2022-11-18T15:21:10;14.00;;;13.30;;
795;SDS011;381;48.770;9.188;2022-11-18T15:26:16;13.80;;;13.10;;
795;SDS011;381;48.770;9.188;2022-11-18T15:31:20;14.47;;;13.67;;
795;SDS011;381;48.770;9.188;2022-11-18T15:36:24;14.00;;;13.10;;
795;SDS011;381;48.770;9.188;2022-11-18T15:41:29;13.57;;;12.43;;
795;SDS011;381;48.770;9.188;2022-11-18T15:46:31;12.73;;;12.10;;
795;SDS011;381;48.770;9.188;2022-11-18T15:51:33;12.37;;;11.67;;
795;SDS011;381;48.770;9.188;2022-11-18T15:56:37;12.80;;;12.10;;
795;SDS011;381;48.770;9.188;2022-11-18T16:01:41;12.17;;;11.13;;
795;SDS011;381;48.770;9.188;2022-11-18T16:06:44;12.40;;;11.60;;
795;SDS011;381;48.770;9.188;2022-11-18T16:11:48;11.90;;;11.23;;
795;SDS011;381;48.770;9.188;2022-11-18T16:17:19;13.17;;;12.07;;
795;SDS011;381;48.770;9.188;2022-11-18T16:22:21;13.00;;;11.93;;
795;SDS011;381;48.770;9.188;2022-11-18T16:27:24;12.50;;;11.57;;
795;SDS011;381;48.770;9.188;2022-11-18T16:32:26;11.33;;;10.53;;
795;SDS011;381;48.770;9.188;2022-11-18T16:37:28;12.73;;;11.73;;
795;SDS011;381;48.770;9.188;2022-11-18T16:42:32;12.77;;;11.87;;
795;SDS011;381;48.770;9.188;2022-11-18T16:47:34;13.50;;;12.50;;
795;SDS011;381;48.770;9.188;2022-11-18T16:52:37;12.53;;;11.63;;
795;SDS011;381;48.770;9.188;2022-11-18T16:57:41;11.00;;;10.20;;
795;SDS011;381;48.770;9.188;2022-11-18T17:02:43;10.50;;;9.60;;
795;SDS011;381;48.770;9.188;2022-11-18T17:07:45;11.27;;;10.30;;
795;SDS011;381;48.770;9.188;2022-11-18T17:12:48;14.30;;;11.27;;
795;SDS011;381;48.770;9.188;2022-11-18T17:17:50;11.87;;;10.83;;
795;SDS011;381;48.770;9.188;2022-11-18T17:22:52;15.50;;;14.00;;
795;SDS011;381;48.770;9.188;2022-11-18T17:27:56;10.47;;;9.50;;
795;SDS011;381;48.770;9.188;2022-11-18T17:32:58;10.93;;;10.00;;
795;SDS011;381;48.770;9.188;2022-11-18T17:38:00;10.63;;;9.83;;
795;SDS011;381;48.770;9.188;2022-11-18T17:43:03;10.30;;;9.43;;
795;SDS011;381;48.770;9.188;2022-11-18T17:48:05;8.77;;;7.97;;
795;SDS011;381;48.770;9.188;2022-11-18T17:53:07;12.50;;;10.10;;
795;SDS011;381;48.770;9.188;2022-11-18T17:58:11;9.70;;;9.00;;
795;SDS011;381;48.770;9.188;2022-11-18T18:03:13;10.33;;;9.53;;
795;SDS011;381;48.770;9.188;2022-11-18T18:08:15;10.90;;;9.00;;
795;SDS011;381;48.770;9.188;2022-11-18T18:13:18;9.20;;;8.50;;
795;SDS011;381;48.770;9.188;2022-11-18T18:18:50;11.73;;;10.10;;
795;SDS011;381;48.770;9.188;2022-11-18T18:23:52;8.43;;;7.60;;
795;SDS011;381;48.770;9.188;2022-11-18T18:28:56;7.97;;;6.77;;
795;SDS011;381;48.770;9.188;2022-11-18T18:33:59;8.77;;;7.77;;
795;SDS011;381;48.770;9.188;2022-11-18T18:39:01;8.60;;;7.90;;
795;SDS011;381;48.770;9.188;2022-11-18T18:44:05;8.57;;;7.83;;
795;SDS011;381;48.770;9.188;2022-11-18T18:49:08;6.27;;;5.83;;
795;SDS011;381;48.770;9.188;2022-11-18T18:54:13;8.20;;;7.50;;
795;SDS011;381;48.770;9.188;2022-11-18T18:59:17;7.13;;;6.53;;
795;SDS011;381;48.770;9.188;2022-11-18T19:04:19;7.80;;;7.20;;
795;SDS011;381;48.770;9.188;2022-11-18T19:09:22;5.90;;;5.50;;
795;SDS011;381;48.770;9.188;2022-11-18T19:14:25;11.67;;;7.50;;
795;SDS011;381;48.770;9.188;2022-11-18T19:19:27;8.13;;;7.30;;
795;SDS011;381;48.770;9.188;2022-11-18T19:24:46;6.53;;;6.10;;
795;SDS011;381;48.770;9.188;2022-11-18T19:29:50;7.20;;;6.80;;
795;SDS011;381;48.770;9.188;2022-11-18T19:34:52;7.00;;;6.60;;
795;SDS011;381;48.770;9.188;2022-11-18T19:39:54;6.40;;;6.00;;
795;SDS011;381;48.770;9.188;2022-11-18T19:44:59;6.20;;;5.80;;
795;SDS011;381;48.770;9.188;2022-11-18T19:50:01;7.30;;;6.60;;
795;SDS011;381;48.770;9.188;2022-11-18T19:55:04;6.40;;;6.00;;
795;SDS011;381;48.770;9.188;2022-11-18T20:00:09;5.60;;;5.30;;
795;SDS011;381;48.770;9.188;2022-11-18T20:05:14;6.97;;;6.47;;
795;SDS011;381;48.770;9.188;2022-11-18T20:10:33;5.47;;;5.17;;
795;SDS011;381;48.770;9.188;2022-11-18T20:15:36;6.17;;;5.87;;
795;SDS011;381;48.770;9.188;2022-11-18T20:20:39;7.80;;;7.10;;
795;SDS011;381;48.770;9.188;2022-11-18T20:25:41;15.83;;;13.30;;
795;SDS011;381;48.770;9.188;2022-11-18T20:30:45;5.73;;;5.37;;
795;SDS011;381;48.770;9.188;2022-11-18T20:35:48;5.93;;;5.60;;
795;SDS011;381;48.770;9.188;2022-11-18T20:40:50;3.73;;;3.53;;
795;SDS011;381;48.770;9.188;2022-11-18T20:45:53;5.30;;;5.00;;
795;SDS011;381;48.770;9.188;2022-11-18T20:50:56;4.43;;;4.13;;
795;SDS011;381;48.770;9.188;2022-11-18T20:55:59;5.10;;;4.80;;
795;SDS011;381;48.770;9.188;2022-11-18T21:01:07;5.20;;;4.90;;
795;SDS011;381;48.770;9.188;2022-11-18T21:06:11;10.97;;;10.00;;
795;SDS011;381;48.770;9.188;2022-11-18T21:11:14;7.97;;;6.03;;
795;SDS011;381;48.770;9.188;2022-11-18T21:16:18;5.23;;;4.87;;
795;SDS011;381;48.770;9.188;2022-11-18T21:21:20;5.53;;;5.10;;
795;SDS011;381;48.770;9.188;2022-11-18T21:26:40;4.93;;;4.53;;
795;SDS011;381;48.770;9.188;2022-11-18T21:31:44;5.03;;;4.77;;
795;SDS011;381;48.770;9.188;2022-11-18T21:36:47;4.90;;;4.60;;
795;SDS011;381;48.770;9.188;2022-11-18T21:41:49;5.20;;;4.90;;
795;SDS011;381;48.770;9.188;2022-11-18T21:46:52;6.00;;;5.60;;
795;SDS011;381;48.770;9.188;2022-11-18T21:51:54;5.67;;;5.27;;
795;SDS011;381;48.770;9.188;2022-11-18T21:56:56;5.60;;;5.20;;
795;SDS011;381;48.770;9.188;2022-11-18T22:02:00;4.70;;;4.50;;
795;SDS011;381;48.770;9.188;2022-11-18T22:07:02;4.73;;;4.43;;
795;SDS011;381;48.770;9.188;2022-11-18T22:12:04;23.13;;;20.73;;
795;SDS011;381;48.770;9.188;2022-11-18T22:17:08;14.87;;;13.53;;
795;SDS011;381;48.770;9.188;2022-11-18T22:22:10;5.90;;;5.60;;
795;SDS011;381;48.770;9.188;2022-11-18T22:27:13;5.60;;;5.20;;
795;SDS011;381;48.770;9.188;2022-11-18T22:32:16;5.40;;;5.20;;
795;SDS011;381;48.770;9.188;2022-11-18T22:37:19;6.10;;;5.70;;
795;SDS011;381;48.770;9.188;2022-11-18T22:42:21;7.67;;;6.97;;
795;SDS011;381;48.770;9.188;2022-11-18T22:47:42;7.83;;;7.30;;
795;SDS011;381;48.770;9.188;2022-11-18T22:52:44;7.83;;;7.33;;
795;SDS011;381;48.770;9.188;2022-11-18T22:57:46;8.87;;;8.17;;
795;SDS011;381;48.770;9.188;2022-11-18T23:02:49;7.80;;;7.30;;
795;SDS011;381;48.770;9.188;2022-11-18T23:07:51;6.93;;;6.53;;
795;SDS011;381;48.770;9.188;2022-11-18T23:12:53;7.13;;;6.73;;
795;SDS011;381;48.770;9.188;2022-11-18T23:18:14;7.37;;;6.97;;
795;SDS011;381;48.770;9.188;2022-11-18T23:23:16;7.27;;;6.87;;
795;SDS011;381;48.770;9.188;2022-11-18T23:28:18;8.60;;;8.00;;
795;SDS011;381;48.770;9.188;2022-11-18T23:33:22;7.93;;;7.40;;
795;SDS011;381;48.770;9.188;2022-11-18T23:38:25;8.90;;;8.40;;
795;SDS011;381;48.770;9.188;2022-11-18T23:43:28;8.60;;;8.00;;
795;SDS011;381;48.770;9.188;2022-11-18T23:48:32;9.77;;;9.17;;
795;SDS011;381;48.770;9.188;2022-11-18T23:53:36;16.10;;;14.00;;
795;SDS011;381;48.770;9.188;2022-11-18T23:58:39;9.10;;;8.43;;
